Hlavní strana
METAR-TAF:

METAR-TAF

Letiště :

Payerne, Švýcarsko

zeměpisná šířka: 46-49N, zeměpisná délka: 006-57E, výška: 490 m

Aktuální stav počasí

Zpráva byla vytvořena před 44 minutami, v 01:50 UTC
Bezvětří
Teplota 19°C
Vlhkost vzduchu 94%
Tlak 1015 hPa
Viditelnost: 8000 m
Polojasno ve výšce 300 ft
Polojasno ve výšce 600 ft
Oblačno až skoro zataženo ve výšce 8600 ft
slabý déšť

METAR: LSMP 160150Z AUTO 00000KT 8000NDV -RA SCT003 SCT006 BKN086 19/18 Q1015 RERA RMK

Čas: 04:34 (02:34 UTC)


TAF: chybějící

Stav a předpovědi počasí z více než 4 000 letišť (zprávy METAR a TAF).

Červené a žluté tečky na mapě představují dostupné meteorologické stanice.

Když kurzor umístíte na tečku, zobrazí se název stanice.

Pak kliknutím zobrazíte stav a předpověď počasí.

Chcete-li změnit mapu, kliknutím na zelené tlačítko se znaménkem +mapu přiblížíte, kliknutím na zelené tlačítko se znaménkem – mapu oddálíte a kliknutím na zelené šipky přejdete na sousední mapy.


METAR-TAF: